createdAt,value
2022-11-29T00:00:49.988Z,96.33
2022-11-29T00:03:16.923Z,96.35
2022-11-29T00:05:43.604Z,96.35
2022-11-29T00:08:10.417Z,96.33
2022-11-29T00:10:38.015Z,96.36
2022-11-29T00:13:05.315Z,96.36
2022-11-29T00:15:36.032Z,96.38
2022-11-29T00:18:03.423Z,96.39
2022-11-29T00:20:30.178Z,96.41
2022-11-29T00:22:56.975Z,96.43
2022-11-29T00:25:24.236Z,96.46
2022-11-29T00:27:51.785Z,96.47
2022-11-29T00:30:20.251Z,96.47
2022-11-29T00:32:47.230Z,96.49
2022-11-29T00:35:14.045Z,96.51
2022-11-29T00:37:40.664Z,96.51
2022-11-29T00:40:08.306Z,96.56
2022-11-29T00:42:34.900Z,96.58
2022-11-29T00:45:01.580Z,96.59
2022-11-29T00:47:28.480Z,96.59
2022-11-29T00:49:55.089Z,96.60
2022-11-29T00:52:21.672Z,96.62
2022-11-29T00:54:48.587Z,96.62
2022-11-29T00:57:15.189Z,96.66
2022-11-29T00:59:41.785Z,96.68
2022-11-29T01:02:08.789Z,96.69
2022-11-29T01:04:35.458Z,96.68
2022-11-29T01:07:02.194Z,96.70
2022-11-29T01:09:29.214Z,96.70
2022-11-29T01:11:55.897Z,96.70
2022-11-29T01:14:22.572Z,96.73
2022-11-29T01:16:49.494Z,96.73
2022-11-29T01:19:16.197Z,96.75
2022-11-29T01:21:42.833Z,96.76
2022-11-29T01:24:09.687Z,96.78
2022-11-29T01:26:36.299Z,96.78
2022-11-29T01:29:02.921Z,96.79
2022-11-29T01:31:32.951Z,96.78
2022-11-29T01:34:01.972Z,96.78
2022-11-29T01:36:29.137Z,96.78
2022-11-29T01:38:58.218Z,96.77
2022-11-29T01:41:28.138Z,96.78
2022-11-29T01:44:05.659Z,96.78
2022-11-29T01:46:37.555Z,96.77
2022-11-29T01:49:10.472Z,96.80
2022-11-29T01:51:40.499Z,96.81
2022-11-29T01:54:09.569Z,96.81
2022-11-29T01:56:37.859Z,96.80
2022-11-29T01:59:09.324Z,96.80
2022-11-29T02:01:36.947Z,96.82
2022-11-29T02:04:05.345Z,96.82
2022-11-29T02:06:32.606Z,96.79
2022-11-29T02:08:59.263Z,96.79
2022-11-29T02:11:58.038Z,96.81
2022-11-29T02:14:44.908Z,96.83
2022-11-29T02:17:47.242Z,96.84
2022-11-29T02:20:29.478Z,96.84
2022-11-29T02:23:46.136Z,96.85
2022-11-29T02:26:25.227Z,96.85
2022-11-29T02:29:36.457Z,96.84
2022-11-29T02:32:41.262Z,96.85
2022-11-29T02:35:10.530Z,96.83
2022-11-29T02:38:08.727Z,96.82
2022-11-29T02:40:53.880Z,96.81
2022-11-29T02:43:31.200Z,96.79
2022-11-29T02:46:18.145Z,96.78
2022-11-29T02:49:03.566Z,96.76
2022-11-29T02:51:46.844Z,96.75
2022-11-29T02:54:28.470Z,96.70
2022-11-29T02:57:14.345Z,96.68
2022-11-29T03:00:01.475Z,96.66
2022-11-29T03:02:46.730Z,96.64
2022-11-29T03:05:24.716Z,96.60
2022-11-29T03:07:59.403Z,96.56
2022-11-29T03:10:59.457Z,96.52
2022-11-29T03:13:52.498Z,96.48
2022-11-29T03:16:27.100Z,96.43
2022-11-29T03:19:16.046Z,96.38
2022-11-29T03:21:51.571Z,96.31
2022-11-29T03:24:49.448Z,96.25
2022-11-29T03:27:25.163Z,96.18
2022-11-29T03:30:01.580Z,96.13
2022-11-29T03:32:40.133Z,96.08
2022-11-29T03:35:09.203Z,96.03
2022-11-29T03:38:01.649Z,95.99
2022-11-29T03:40:49.992Z,95.93
2022-11-29T03:43:23.648Z,95.90
2022-11-29T03:46:16.079Z,95.84
2022-11-29T03:48:48.503Z,95.82
2022-11-29T03:51:54.634Z,95.77
2022-11-29T03:54:27.945Z,95.73
2022-11-29T03:56:54.994Z,95.68
2022-11-29T03:59:51.677Z,95.64
2022-11-29T04:02:57.590Z,95.62
2022-11-29T04:06:02.654Z,95.59
2022-11-29T04:08:54.491Z,95.55
2022-11-29T04:11:54.681Z,95.53
2022-11-29T04:14:33.462Z,95.51
2022-11-29T04:17:19.137Z,95.46
2022-11-29T04:20:25.545Z,95.41
2022-11-29T04:23:30.090Z,95.38
2022-11-29T04:26:15.118Z,95.34
2022-11-29T04:28:53.959Z,95.29
2022-11-29T04:31:45.734Z,95.26
2022-11-29T04:34:31.167Z,95.24
2022-11-29T04:37:46.343Z,95.23
2022-11-29T04:40:27.521Z,95.22
2022-11-29T04:42:58.580Z,95.18
2022-11-29T04:45:43.870Z,95.16
2022-11-29T04:48:38.575Z,95.12
2022-11-29T04:51:42.697Z,95.10
2022-11-29T04:54:47.302Z,95.07
2022-11-29T04:57:47.465Z,95.05
2022-11-29T05:00:19.306Z,95.02
2022-11-29T05:03:01.953Z,94.97
2022-11-29T05:05:43.359Z,94.94
2022-11-29T05:08:29.075Z,94.90
2022-11-29T05:11:25.038Z,94.88
2022-11-29T05:14:30.729Z,94.82
2022-11-29T05:17:12.417Z,94.76
2022-11-29T05:20:08.245Z,94.76
2022-11-29T05:22:51.626Z,94.73
2022-11-29T05:25:31.084Z,94.71
2022-11-29T05:28:10.639Z,94.67
2022-11-29T05:31:03.325Z,94.65
2022-11-29T05:33:32.670Z,94.62
2022-11-29T05:36:29.617Z,94.68
2022-11-29T05:39:20.542Z,94.62
2022-11-29T05:42:30.539Z,94.59
2022-11-29T05:45:04.872Z,94.57
2022-11-29T05:47:49.994Z,94.53
2022-11-29T05:51:03.856Z,94.50
2022-11-29T05:53:42.554Z,94.51
2022-11-29T05:57:03.519Z,94.53
2022-11-29T05:59:31.278Z,94.51
2022-11-29T06:02:25.141Z,94.51
2022-11-29T06:05:26.034Z,94.50
2022-11-29T06:08:25.669Z,94.51
2022-11-29T06:11:01.444Z,94.50
2022-11-29T06:13:57.879Z,94.49
2022-11-29T06:16:30.958Z,94.42
2022-11-29T06:19:39.341Z,94.42
2022-11-29T06:22:30.794Z,94.44
2022-11-29T06:25:20.352Z,94.47
2022-11-29T06:28:16.907Z,94.49
2022-11-29T06:31:05.109Z,94.51
2022-11-29T07:54:24.446Z,95.68
2022-11-29T07:56:51.411Z,95.44
2022-11-29T08:41:24.525Z,95.25
2022-11-29T08:43:51.645Z,95.21
2022-11-29T08:46:18.963Z,95.72
2022-11-29T08:48:47.282Z,95.77
2022-11-29T08:51:15.509Z,95.77
2022-11-29T08:53:42.236Z,95.74
2022-11-29T08:56:41.660Z,95.70
2022-11-29T08:58:56.388Z,95.71
2022-11-29T09:01:23.232Z,95.69
2022-11-29T09:04:10.565Z,95.65
2022-11-29T09:06:40.721Z,95.61
2022-11-29T09:09:07.766Z,95.60
2022-11-29T09:11:35.262Z,95.55
2022-11-29T09:14:06.979Z,95.51
2022-11-29T09:16:36.776Z,95.49
2022-11-29T09:19:05.333Z,95.43
2022-11-29T09:21:33.686Z,95.44
2022-11-29T09:24:01.818Z,95.43
2022-11-29T09:26:32.510Z,95.40
2022-11-29T09:29:01.438Z,95.34
2022-11-29T09:31:29.971Z,95.30
2022-11-29T09:33:57.678Z,95.23
2022-11-29T09:36:28.458Z,95.19
2022-11-29T09:38:57.204Z,95.15
2022-11-29T09:41:40.266Z,95.12
2022-11-29T09:44:20.639Z,95.10
2022-11-29T09:47:05.714Z,95.08
2022-11-29T09:49:55.220Z,95.08
2022-11-29T09:52:31.618Z,95.08
2022-11-29T09:55:21.104Z,95.09
2022-11-29T09:57:49.424Z,95.07
2022-11-29T10:00:20.007Z,95.04
2022-11-29T10:03:04.061Z,95.03
2022-11-29T10:05:35.450Z,95.00
2022-11-29T10:08:25.593Z,94.99
2022-11-29T10:11:02.126Z,94.94
2022-11-29T10:13:34.784Z,94.92
2022-11-29T10:16:14.360Z,94.90
2022-11-29T10:18:54.401Z,94.85
2022-11-29T10:21:27.701Z,94.82
2022-11-29T13:38:52.149Z,93.51
2022-11-29T13:41:41.000Z,93.51
2022-11-29T13:44:46.126Z,94.08
2022-11-29T13:47:15.685Z,94.09
2022-11-29T13:50:02.738Z,94.08
2022-11-29T13:52:40.499Z,94.03
2022-11-29T13:55:14.448Z,93.99
2022-11-29T13:58:15.646Z,93.96
2022-11-29T14:00:43.908Z,93.94
2022-11-29T14:03:23.255Z,93.94
2022-11-29T14:05:54.166Z,93.92
2022-11-29T14:08:48.153Z,93.91
2022-11-29T14:11:25.029Z,93.90
2022-11-29T14:13:59.063Z,93.87
2022-11-29T14:16:32.270Z,93.86
2022-11-29T14:19:10.406Z,93.83
2022-11-29T14:21:58.706Z,93.84
2022-11-29T16:14:52.500Z,93.49
2022-11-29T16:17:21.046Z,93.49
2022-11-29T16:19:48.113Z,94.09
2022-11-29T16:22:21.548Z,94.08
2022-11-29T16:25:05.688Z,94.08
2022-11-29T16:27:34.057Z,94.03
2022-11-29T16:30:02.352Z,94.01
2022-11-29T16:32:41.274Z,93.98
2022-11-29T16:35:26.237Z,93.95
2022-11-29T16:37:53.712Z,93.91
2022-11-29T16:40:27.297Z,93.91
2022-11-29T16:43:03.095Z,93.87
2022-11-29T16:45:41.837Z,93.85
2022-11-29T16:48:25.528Z,93.84
2022-11-29T16:51:23.766Z,93.83
2022-11-29T16:53:52.080Z,93.80
2022-11-29T16:56:28.101Z,93.78
2022-11-29T16:59:25.348Z,93.77
2022-11-29T17:01:49.903Z,93.74
2022-11-29T17:04:23.533Z,93.73
2022-11-29T17:06:53.820Z,93.72
2022-11-29T17:09:27.074Z,93.71
2022-11-29T17:11:55.579Z,93.69
2022-11-29T17:14:22.735Z,93.69
2022-11-29T17:16:49.779Z,93.68
2022-11-29T17:19:17.585Z,93.69
2022-11-29T17:21:44.888Z,93.68
2022-11-29T17:24:14.357Z,93.70
2022-11-29T17:26:43.120Z,93.70
2022-11-29T17:29:14.564Z,93.69
2022-11-29T17:31:44.179Z,93.70
2022-11-29T17:34:11.436Z,93.69
2022-11-29T17:36:38.364Z,93.68
2022-11-29T17:39:05.488Z,93.69
2022-11-29T17:41:33.060Z,93.70
2022-11-29T17:44:00.487Z,93.68
2022-11-29T17:46:32.243Z,93.69
2022-11-29T17:49:01.341Z,93.70
2022-11-29T17:51:51.332Z,93.70
2022-11-29T17:54:15.325Z,93.70
2022-11-29T17:56:42.252Z,93.70
2022-11-29T17:59:08.913Z,93.70
2022-11-29T18:01:36.373Z,93.69
2022-11-29T18:04:08.891Z,93.70
2022-11-29T18:06:50.298Z,93.70
2022-11-29T18:09:19.408Z,93.70
2022-11-29T18:11:49.107Z,93.72
2022-11-29T18:14:22.942Z,93.75
2022-11-29T18:16:50.583Z,93.76
2022-11-29T18:19:20.349Z,93.77
2022-11-29T18:21:49.022Z,93.79
2022-11-29T18:24:16.192Z,93.80
2022-11-29T18:26:43.255Z,93.82
2022-11-29T18:29:10.244Z,93.84
2022-11-29T18:31:40.781Z,93.85
2022-11-29T18:34:09.813Z,93.88
2022-11-29T18:36:40.459Z,93.89
2022-11-29T18:39:09.948Z,93.89
2022-11-29T18:41:37.911Z,93.91
2022-11-29T18:44:07.384Z,93.91
2022-11-29T18:46:37.098Z,93.94
2022-11-29T18:49:06.758Z,93.97
2022-11-29T18:51:34.465Z,93.99
2022-11-29T18:54:02.018Z,94.01
2022-11-29T18:56:31.236Z,94.00
2022-11-29T18:59:00.364Z,94.01
2022-11-29T19:01:30.013Z,94.04
2022-11-29T19:03:59.043Z,94.05
2022-11-29T19:06:39.411Z,94.05
2022-11-29T19:09:11.604Z,94.09
2022-11-29T19:11:38.776Z,94.11
2022-11-29T19:14:11.346Z,94.11
2022-11-29T19:16:44.543Z,94.11
2022-11-29T19:19:12.058Z,94.09
2022-11-29T19:21:40.152Z,94.08
2022-11-29T19:24:13.261Z,94.05
2022-11-29T19:26:40.751Z,94.01
2022-11-29T19:29:07.589Z,93.97
2022-11-29T19:31:34.376Z,93.92
2022-11-29T19:34:01.654Z,93.92
2022-11-29T19:36:30.642Z,93.89
2022-11-29T19:39:00.044Z,93.87
2022-11-29T19:41:29.798Z,93.85
2022-11-29T19:43:58.258Z,93.85
2022-11-29T19:46:27.937Z,93.83
2022-11-29T19:48:59.913Z,93.82
2022-11-29T19:51:28.660Z,93.81
2022-11-29T19:54:00.984Z,93.81
2022-11-29T19:56:28.371Z,93.80
2022-11-29T19:58:55.466Z,93.80
2022-11-29T20:01:25.352Z,93.77
2022-11-29T20:03:52.865Z,93.75
2022-11-29T20:06:20.225Z,93.73
2022-11-29T20:08:46.978Z,93.74
2022-11-29T20:11:16.329Z,93.75
2022-11-29T20:13:44.458Z,93.74
2022-11-29T20:16:14.679Z,93.73
2022-11-29T20:18:50.134Z,93.74
2022-11-29T20:21:21.321Z,93.74
2022-11-29T20:23:48.651Z,93.72
2022-11-29T20:26:19.599Z,93.71
2022-11-29T20:28:47.466Z,93.70
2022-11-29T20:31:17.943Z,93.69
2022-11-29T20:33:46.546Z,93.68
2022-11-29T20:36:25.349Z,93.67
2022-11-29T20:39:03.960Z,93.67
2022-11-29T20:41:55.750Z,93.67
2022-11-29T20:44:37.762Z,93.63
2022-11-29T20:47:17.151Z,93.63
2022-11-29T20:49:44.875Z,93.61
2022-11-29T20:52:28.456Z,93.60
2022-11-29T20:54:55.380Z,93.57
2022-11-29T20:57:22.261Z,93.57
2022-11-29T20:59:48.907Z,93.55
2022-11-29T21:02:15.895Z,93.53
2022-11-29T21:04:42.599Z,93.50
2022-11-29T21:07:09.209Z,93.50
2022-11-29T21:09:36.269Z,93.50
2022-11-29T21:12:03.263Z,93.51
2022-11-29T21:14:30.135Z,93.49
2022-11-29T21:16:57.391Z,93.48
2022-11-29T21:19:25.806Z,93.46
2022-11-29T21:22:14.176Z,93.46
2022-11-29T21:25:02.717Z,93.47
2022-11-29T21:27:32.939Z,93.50
2022-11-29T21:30:03.308Z,93.52
2022-11-29T21:32:30.617Z,93.54
2022-11-29T21:34:57.918Z,93.55
2022-11-29T21:37:27.656Z,93.55
2022-11-29T21:39:55.234Z,93.54
2022-11-29T21:42:22.018Z,93.54
2022-11-29T21:44:49.191Z,93.55
2022-11-29T21:47:15.941Z,93.58
2022-11-29T21:49:42.671Z,93.58
2022-11-29T21:52:09.596Z,93.61
2022-11-29T21:54:37.033Z,93.62
2022-11-29T21:57:04.287Z,93.62
2022-11-29T21:59:31.252Z,93.62
2022-11-29T22:01:57.946Z,93.64
2022-11-29T22:04:25.343Z,93.64
2022-11-29T22:06:52.117Z,93.63
2022-11-29T22:09:18.750Z,93.64
2022-11-29T22:11:45.716Z,93.64
2022-11-29T22:14:18.734Z,93.65
2022-11-29T22:16:54.049Z,93.65
2022-11-29T22:19:32.532Z,93.65
2022-11-29T22:22:05.394Z,93.65
2022-11-29T22:24:36.704Z,93.63
2022-11-29T22:27:04.126Z,93.63
2022-11-29T22:29:30.945Z,93.65
2022-11-29T22:31:59.340Z,93.62
2022-11-29T22:34:27.029Z,93.63
2022-11-29T22:36:54.155Z,93.61
2022-11-29T22:39:22.754Z,93.60
2022-11-29T22:41:54.168Z,93.60
2022-11-29T22:44:21.868Z,93.58
2022-11-29T22:46:48.824Z,93.57
2022-11-29T22:49:15.913Z,93.54
2022-11-29T22:51:42.629Z,93.52
2022-11-29T22:54:11.693Z,93.52
2022-11-29T22:56:40.855Z,93.48
2022-11-29T22:59:07.761Z,93.46
2022-11-29T23:01:36.591Z,93.44
2022-11-29T23:04:07.248Z,93.44
2022-11-29T23:06:40.395Z,93.43
2022-11-29T23:09:16.567Z,93.40
2022-11-29T23:11:44.809Z,93.41
2022-11-29T23:14:12.323Z,93.36
2022-11-29T23:16:39.148Z,93.34
2022-11-29T23:19:05.893Z,93.32
2022-11-29T23:21:38.951Z,93.32
2022-11-29T23:24:06.600Z,93.30
2022-11-29T23:26:40.188Z,93.26
2022-11-29T23:29:18.739Z,93.23
2022-11-29T23:31:46.873Z,93.18
2022-11-29T23:34:14.200Z,93.14
2022-11-29T23:36:41.532Z,93.12
2022-11-29T23:39:08.513Z,93.09
2022-11-29T23:41:36.651Z,93.03
2022-11-29T23:44:04.870Z,93.01
2022-11-29T23:46:32.276Z,92.98
2022-11-29T23:48:58.873Z,92.95
2022-11-29T23:51:25.524Z,92.91
2022-11-29T23:53:53.550Z,92.88
2022-11-29T23:56:21.736Z,92.84
2022-11-29T23:58:48.634Z,92.80
